createdAt,value
2023-01-19T00:01:35.205Z,-2.27
2023-01-19T00:04:04.570Z,-2.29
2023-01-19T00:06:32.528Z,-2.22
2023-01-19T00:09:00.443Z,-2.15
2023-01-19T00:11:28.138Z,-2.03
2023-01-19T00:13:56.248Z,-2.16
2023-01-19T00:16:24.214Z,-2.09
2023-01-19T00:18:52.845Z,-2.02
2023-01-19T00:21:22.631Z,-2.09
2023-01-19T00:23:52.508Z,-2.03
2023-01-19T00:26:22.080Z,-2.02
2023-01-19T00:28:50.763Z,-2.02
2023-01-19T00:31:20.511Z,-2.11
2023-01-19T00:33:49.242Z,-2.17
2023-01-19T00:36:17.281Z,-2.09
2023-01-19T00:38:46.314Z,-2.11
2023-01-19T00:41:13.996Z,-2.24
2023-01-19T00:43:40.671Z,-2.23
2023-01-19T00:46:08.441Z,-2.24
2023-01-19T00:48:36.285Z,-2.26
2023-01-19T00:51:04.032Z,-2.20
2023-01-19T00:53:32.519Z,-2.28
2023-01-19T00:56:01.714Z,-2.32
2023-01-19T00:58:29.357Z,-2.35
2023-01-19T01:01:03.335Z,-2.37
2023-01-19T01:03:31.221Z,-2.41
2023-01-19T01:05:58.971Z,-2.53
2023-01-19T01:08:26.621Z,-2.46
2023-01-19T01:10:54.301Z,-2.43
2023-01-19T01:13:26.390Z,-2.54
2023-01-19T01:15:57.052Z,-2.61
2023-01-19T01:18:25.758Z,-2.63
2023-01-19T01:20:56.139Z,-2.63
2023-01-19T01:23:24.085Z,-2.66
2023-01-19T01:25:51.754Z,-2.66
2023-01-19T01:28:19.487Z,-2.67
2023-01-19T01:30:48.686Z,-2.72
2023-01-19T01:33:16.319Z,-2.69
2023-01-19T01:36:04.160Z,-2.74
2023-01-19T01:38:31.884Z,-2.75
2023-01-19T01:40:59.522Z,-2.69
2023-01-19T01:43:43.797Z,-2.70
2023-01-19T01:46:15.269Z,-2.65
2023-01-19T01:48:45.936Z,-2.72
2023-01-19T01:51:27.858Z,-2.82
2023-01-19T01:54:04.467Z,-2.82
2023-01-19T01:56:36.731Z,-2.76
2023-01-19T01:59:07.901Z,-2.80
2023-01-19T02:01:55.163Z,-2.85
2023-01-19T02:04:24.041Z,-2.94
2023-01-19T02:07:09.558Z,-2.92
2023-01-19T02:09:55.599Z,-2.90
2023-01-19T02:12:41.609Z,-2.92
2023-01-19T02:15:16.861Z,-2.96
2023-01-19T02:17:46.174Z,-3.02
2023-01-19T02:20:14.713Z,-3.03
2023-01-19T02:22:48.708Z,-2.79
2023-01-19T02:25:19.277Z,-2.75
2023-01-19T02:27:47.475Z,-2.82
2023-01-19T02:30:16.540Z,-2.82
2023-01-19T02:32:44.847Z,-2.98
2023-01-19T02:35:14.489Z,-3.03
2023-01-19T02:37:44.864Z,-3.08
2023-01-19T02:40:13.770Z,-3.10
2023-01-19T02:42:45.407Z,-3.10
2023-01-19T02:45:15.966Z,-3.03
2023-01-19T02:47:46.295Z,-3.17
2023-01-19T02:50:32.135Z,-3.13
2023-01-19T02:53:12.925Z,-3.12
2023-01-19T02:55:43.259Z,-3.17
2023-01-19T02:58:16.197Z,-3.27
2023-01-19T03:00:52.150Z,-3.22
2023-01-19T03:03:31.715Z,-3.20
2023-01-19T03:06:06.597Z,-3.22
2023-01-19T03:08:44.709Z,-3.22
2023-01-19T03:11:13.859Z,-2.99
2023-01-19T03:13:48.329Z,-3.21
2023-01-19T03:16:22.521Z,-3.18
2023-01-19T03:18:55.681Z,-3.34
2023-01-19T03:21:27.657Z,-3.33
2023-01-19T03:23:58.064Z,-3.29
2023-01-19T03:26:29.832Z,-3.32
2023-01-19T03:29:03.478Z,-3.32
2023-01-19T03:31:34.157Z,-3.27
2023-01-19T03:34:07.367Z,-3.35
2023-01-19T03:36:38.219Z,-3.44
2023-01-19T03:39:08.875Z,-3.34
2023-01-19T03:41:38.456Z,-3.32
2023-01-19T03:44:08.394Z,-3.30
2023-01-19T03:46:36.164Z,-3.29
2023-01-19T03:49:03.948Z,-3.42
2023-01-19T03:51:31.814Z,-3.44
2023-01-19T03:54:01.281Z,-3.57
2023-01-19T03:56:28.965Z,-3.53
2023-01-19T03:58:57.109Z,-3.50
2023-01-19T04:01:26.570Z,-3.46
2023-01-19T04:03:55.024Z,-3.61
2023-01-19T04:06:22.792Z,-3.62
2023-01-19T04:08:51.546Z,-3.56
2023-01-19T04:11:19.567Z,-3.60
2023-01-19T04:13:47.256Z,-3.56
2023-01-19T04:16:19.836Z,-3.67
2023-01-19T04:18:49.296Z,-3.58
2023-01-19T04:21:17.439Z,-3.72
2023-01-19T04:23:45.970Z,-3.72
2023-01-19T04:26:14.200Z,-3.62
2023-01-19T04:28:41.897Z,-3.67
2023-01-19T04:31:09.763Z,-3.61
2023-01-19T04:33:37.610Z,-3.54
2023-01-19T04:36:07.381Z,-3.51
2023-01-19T04:38:35.339Z,-3.52
2023-01-19T04:41:03.064Z,-3.59
2023-01-19T04:43:30.757Z,-3.50
2023-01-19T04:45:58.760Z,-3.57
2023-01-19T04:48:26.356Z,-3.64
2023-01-19T04:50:53.999Z,-3.59
2023-01-19T04:53:23.043Z,-3.69
2023-01-19T04:55:54.741Z,-3.65
2023-01-19T04:58:22.540Z,-3.67
2023-01-19T05:00:52.095Z,-3.72
2023-01-19T05:03:20.339Z,-3.75
2023-01-19T05:05:48.112Z,-3.76
2023-01-19T05:08:15.874Z,-3.76
2023-01-19T05:10:45.005Z,-3.73
2023-01-19T05:13:14.182Z,-3.78
2023-01-19T05:15:41.844Z,-3.82
2023-01-19T05:18:09.789Z,-3.90
2023-01-19T05:20:37.429Z,-3.80
2023-01-19T05:23:05.118Z,-3.95
2023-01-19T05:25:32.739Z,-3.91
2023-01-19T05:28:02.849Z,-3.95
2023-01-19T05:30:30.780Z,-3.95
2023-01-19T05:32:58.888Z,-3.89
2023-01-19T05:35:35.575Z,-3.96
2023-01-19T05:38:03.823Z,-3.93
2023-01-19T05:40:31.434Z,-3.97
2023-01-19T05:43:00.998Z,-3.97
2023-01-19T05:45:30.522Z,-3.96
2023-01-19T05:47:58.294Z,-3.98
2023-01-19T05:50:26.120Z,-4.00
2023-01-19T05:52:54.092Z,-4.01
2023-01-19T05:55:22.687Z,-3.96
2023-01-19T05:57:50.406Z,-3.80
2023-01-19T06:00:19.146Z,-3.97
2023-01-19T06:02:49.332Z,-4.11
2023-01-19T06:05:17.210Z,-4.06
2023-01-19T06:07:44.966Z,-3.95
2023-01-19T06:10:13.303Z,-3.92
2023-01-19T06:12:41.418Z,-4.04
2023-01-19T06:15:09.810Z,-3.99
2023-01-19T06:17:37.795Z,-4.14
2023-01-19T06:20:07.934Z,-4.18
2023-01-19T06:22:35.564Z,-4.09
2023-01-19T06:25:03.311Z,-3.92
2023-01-19T06:27:31.112Z,-4.11
2023-01-19T06:29:58.758Z,-4.14
2023-01-19T06:32:26.460Z,-4.10
2023-01-19T06:34:54.259Z,-4.07
2023-01-19T06:37:26.773Z,-4.04
2023-01-19T06:39:54.463Z,-4.07
2023-01-19T06:42:22.071Z,-4.14
2023-01-19T06:44:49.724Z,-4.10
2023-01-19T06:47:17.718Z,-4.08
2023-01-19T06:49:45.411Z,-4.14
2023-01-19T06:52:15.804Z,-4.04
2023-01-19T06:54:45.267Z,-4.13
2023-01-19T06:57:13.890Z,-4.14
2023-01-19T06:59:41.813Z,-4.13
2023-01-19T07:02:26.208Z,-4.05
2023-01-19T07:04:55.677Z,-4.10
2023-01-19T07:07:23.426Z,-4.22
2023-01-19T07:09:54.088Z,-4.18
2023-01-19T07:12:22.243Z,-4.15
2023-01-19T07:14:50.319Z,-4.12
2023-01-19T07:17:18.360Z,-4.20
2023-01-19T07:19:46.577Z,-4.37
2023-01-19T07:22:14.243Z,-4.22
2023-01-19T07:24:41.938Z,-4.19
2023-01-19T07:27:12.332Z,-4.25
2023-01-19T07:29:40.061Z,-4.16
2023-01-19T07:32:07.899Z,-4.13
2023-01-19T07:34:36.419Z,-4.06
2023-01-19T07:37:04.727Z,-4.09
2023-01-19T07:39:32.498Z,-4.15
2023-01-19T07:42:00.326Z,-4.10
2023-01-19T07:44:29.372Z,-4.10
2023-01-19T07:46:57.046Z,-4.22
2023-01-19T07:49:25.526Z,-4.21
2023-01-19T07:51:53.200Z,-4.32
2023-01-19T07:54:21.275Z,-4.05
2023-01-19T07:56:48.997Z,-4.09
2023-01-19T07:59:16.695Z,-4.06
2023-01-19T08:01:45.821Z,-3.93
2023-01-19T08:04:13.633Z,-4.04
2023-01-19T08:06:41.825Z,-4.06
2023-01-19T08:09:09.972Z,-4.09
2023-01-19T08:11:37.726Z,-3.96
2023-01-19T08:14:07.879Z,-3.93
2023-01-19T08:16:35.621Z,-3.97
2023-01-19T08:19:05.016Z,-4.00
2023-01-19T08:21:33.286Z,-3.96
2023-01-19T08:24:01.089Z,-3.96
2023-01-19T08:26:31.870Z,-3.82
2023-01-19T08:29:01.641Z,-3.65
2023-01-19T08:31:29.659Z,-3.66
2023-01-19T08:33:57.940Z,-3.63
2023-01-19T08:36:27.565Z,-3.64
2023-01-19T08:38:55.277Z,-3.67
2023-01-19T08:41:22.945Z,-3.51
2023-01-19T08:43:51.129Z,-3.52
2023-01-19T08:46:21.569Z,-3.47
2023-01-19T08:48:50.281Z,-3.27
2023-01-19T08:51:18.554Z,-3.11
2023-01-19T08:53:47.919Z,-3.06
2023-01-19T08:56:16.011Z,-3.07
2023-01-19T08:58:45.672Z,-3.11
2023-01-19T09:01:16.787Z,-3.02
2023-01-19T09:03:45.033Z,-3.02
2023-01-19T09:06:17.014Z,-3.08
2023-01-19T09:08:45.018Z,-2.81
2023-01-19T09:11:16.409Z,-2.94
2023-01-19T09:13:44.172Z,-2.83
2023-01-19T09:16:13.294Z,-2.89
2023-01-19T09:18:41.348Z,-2.78
2023-01-19T09:21:09.687Z,-2.87
2023-01-19T09:23:37.732Z,-2.86
2023-01-19T09:26:07.011Z,-2.70
2023-01-19T09:28:36.098Z,-2.68
2023-01-19T09:31:06.525Z,-2.54
2023-01-19T09:33:34.797Z,-2.33
2023-01-19T09:36:02.904Z,-2.40
2023-01-19T09:38:32.919Z,-2.28
2023-01-19T09:41:01.476Z,-2.26
2023-01-19T09:43:40.373Z,-2.20
2023-01-19T09:46:13.518Z,-2.01
2023-01-19T09:48:46.651Z,-1.71
2023-01-19T09:51:18.669Z,-1.76
2023-01-19T09:54:04.082Z,-1.74
2023-01-19T09:56:32.808Z,-1.52
2023-01-19T09:59:02.265Z,-1.39
2023-01-19T10:01:48.148Z,-1.30
2023-01-19T10:04:39.766Z,-1.23
2023-01-19T10:07:15.732Z,-1.16
2023-01-19T10:10:06.235Z,-1.07
2023-01-19T10:16:35.914Z,-1.07
2023-01-19T10:19:18.996Z,-1.06
2023-01-19T10:21:48.604Z,-0.96
2023-01-19T10:24:20.984Z,-0.72
2023-01-19T10:26:52.483Z,-0.65
2023-01-19T10:29:25.227Z,-0.57
2023-01-19T10:32:04.529Z,-0.50
2023-01-19T10:34:32.230Z,-0.49
2023-01-19T10:37:06.157Z,-0.33
2023-01-19T10:39:37.397Z,-0.24
2023-01-19T10:42:07.556Z,-0.26
2023-01-19T10:44:37.295Z,-0.11
2023-01-19T10:47:12.640Z,-0.14
2023-01-19T10:49:43.521Z,-0.02
2023-01-19T10:52:22.613Z,-0.11
2023-01-19T10:54:50.383Z,0.01
2023-01-19T10:57:29.401Z,0.09
2023-01-19T10:59:57.498Z,0.12
2023-01-19T11:02:28.296Z,0.21
2023-01-19T11:04:58.695Z,0.23
2023-01-19T11:07:30.368Z,0.24
2023-01-19T11:10:21.958Z,0.23
2023-01-19T11:12:58.243Z,0.31
2023-01-19T11:15:30.130Z,0.51
2023-01-19T11:17:59.932Z,0.54
2023-01-19T11:20:31.553Z,0.59
2023-01-19T11:23:06.206Z,0.53
2023-01-19T11:25:36.513Z,0.63
2023-01-19T11:28:04.939Z,0.85
2023-01-19T11:30:36.700Z,0.92
2023-01-19T11:33:07.429Z,0.90
2023-01-19T11:35:38.790Z,1.06
2023-01-19T11:38:08.749Z,1.19
2023-01-19T11:40:36.826Z,1.39
2023-01-19T11:43:04.465Z,1.35
2023-01-19T11:45:33.914Z,1.64
2023-01-19T11:48:07.058Z,1.64
2023-01-19T11:50:42.015Z,1.74
2023-01-19T11:53:17.320Z,1.83
2023-01-19T11:55:50.088Z,1.80
2023-01-19T11:58:19.490Z,1.80
2023-01-19T12:00:52.120Z,1.90
2023-01-19T12:03:25.495Z,1.70
2023-01-19T12:06:00.102Z,1.85
2023-01-19T12:08:32.263Z,2.05
2023-01-19T12:11:03.483Z,2.00
2023-01-19T12:13:33.340Z,2.03
2023-01-19T12:16:05.664Z,1.98
2023-01-19T12:18:38.575Z,1.57
2023-01-19T12:21:07.710Z,1.60
2023-01-19T12:23:51.627Z,1.79
2023-01-19T12:26:29.297Z,1.77
2023-01-19T12:29:01.052Z,1.74
2023-01-19T12:31:29.185Z,1.63
2023-01-19T12:33:57.046Z,1.75
2023-01-19T12:36:39.322Z,1.79
2023-01-19T12:39:17.859Z,1.75
2023-01-19T12:41:45.873Z,1.88
2023-01-19T12:44:27.592Z,2.10
2023-01-19T12:46:57.520Z,2.03
2023-01-19T12:49:28.857Z,2.05
2023-01-19T12:52:18.015Z,1.82
2023-01-19T12:54:54.222Z,1.79
2023-01-19T12:57:26.187Z,1.67
2023-01-19T12:59:58.625Z,1.77
2023-01-19T13:02:48.292Z,1.86
2023-01-19T13:05:48.889Z,1.72
2023-01-19T13:08:18.994Z,1.86
2023-01-19T13:11:19.597Z,1.45
2023-01-19T13:14:01.936Z,1.55
2023-01-19T13:16:56.881Z,1.72
2023-01-19T13:19:35.874Z,1.93
2023-01-19T13:23:04.528Z,2.01
2023-01-19T13:25:36.492Z,2.52
2023-01-19T13:28:10.421Z,2.24
2023-01-19T13:30:45.860Z,2.33
2023-01-19T13:33:20.152Z,2.15
2023-01-19T13:35:53.861Z,1.92
2023-01-19T13:38:24.054Z,2.04
2023-01-19T13:40:54.832Z,2.02
2023-01-19T13:43:29.341Z,2.03
2023-01-19T13:45:57.362Z,1.90
2023-01-19T13:48:25.970Z,1.88
2023-01-19T13:51:02.738Z,1.99
2023-01-19T13:53:30.883Z,1.69
2023-01-19T13:56:17.955Z,1.85
2023-01-19T13:58:58.590Z,1.76
2023-01-19T14:01:29.413Z,1.74
2023-01-19T14:03:57.884Z,1.66
2023-01-19T14:06:34.139Z,1.36
2023-01-19T14:09:19.915Z,1.59
2023-01-19T14:12:05.938Z,1.50
2023-01-19T14:14:33.957Z,1.41
2023-01-19T14:17:01.884Z,1.39
2023-01-19T14:19:29.613Z,1.41
2023-01-19T14:22:02.126Z,1.23
2023-01-19T14:24:33.150Z,1.41
2023-01-19T14:27:21.325Z,1.14
2023-01-19T14:29:50.561Z,1.10
2023-01-19T14:32:20.384Z,1.06
2023-01-19T14:34:50.162Z,1.00
2023-01-19T14:37:21.767Z,0.86
2023-01-19T14:39:51.590Z,0.82
2023-01-19T14:42:27.943Z,0.69
2023-01-19T14:45:00.581Z,0.96
2023-01-19T14:47:47.058Z,0.92
2023-01-19T14:50:25.719Z,0.82
2023-01-19T14:52:57.288Z,0.80
2023-01-19T14:55:32.987Z,0.78
2023-01-19T14:58:02.230Z,0.67
2023-01-19T15:00:30.316Z,0.59
2023-01-19T15:02:58.006Z,0.51
2023-01-19T15:05:25.780Z,0.61
2023-01-19T15:07:53.517Z,0.44
2023-01-19T15:10:23.502Z,0.37
2023-01-19T15:12:55.463Z,0.38
2023-01-19T15:15:30.260Z,0.41
2023-01-19T15:17:58.574Z,0.28
2023-01-19T15:20:26.271Z,0.32
2023-01-19T15:22:53.940Z,0.27
2023-01-19T15:25:25.976Z,0.12
2023-01-19T15:27:54.376Z,0.11
2023-01-19T15:30:27.672Z,0.04
2023-01-19T15:32:55.321Z,0.01
2023-01-19T15:35:24.455Z,-0.02
2023-01-19T15:37:52.122Z,0.05
2023-01-19T15:40:22.653Z,0.10
2023-01-19T15:42:51.025Z,0.12
2023-01-19T15:45:32.727Z,0.00
2023-01-19T15:48:01.149Z,-0.15
2023-01-19T15:50:28.866Z,-0.14
2023-01-19T15:52:56.625Z,-0.10
2023-01-19T15:55:24.568Z,-0.11
2023-01-19T15:57:52.193Z,-0.19
2023-01-19T16:00:20.374Z,-0.10
2023-01-19T16:02:51.972Z,-0.11
2023-01-19T16:05:19.702Z,-0.25
2023-01-19T16:07:47.537Z,-0.26
2023-01-19T16:10:16.786Z,-0.28
2023-01-19T16:12:44.969Z,-0.26
2023-01-19T16:15:13.421Z,-0.37
2023-01-19T16:17:41.319Z,-0.39
2023-01-19T16:20:14.650Z,-0.36
2023-01-19T16:22:42.592Z,-0.41
2023-01-19T16:25:10.913Z,-0.46
2023-01-19T16:27:38.722Z,-0.49
2023-01-19T16:30:07.847Z,-0.51
2023-01-19T16:32:36.388Z,-0.63
2023-01-19T16:35:04.152Z,-0.66
2023-01-19T16:37:33.301Z,-0.70
2023-01-19T16:40:01.023Z,-0.65
2023-01-19T16:42:28.841Z,-0.65
2023-01-19T16:44:56.487Z,-0.54
2023-01-19T16:47:24.247Z,-0.55
2023-01-19T16:49:51.950Z,-0.64
2023-01-19T16:52:19.777Z,-0.68
2023-01-19T16:54:49.142Z,-0.73
2023-01-19T16:57:16.829Z,-0.62
2023-01-19T16:59:45.100Z,-0.70
2023-01-19T17:02:12.941Z,-0.74
2023-01-19T17:04:40.712Z,-0.72
2023-01-19T17:07:08.352Z,-0.76
2023-01-19T17:09:36.020Z,-0.74
2023-01-19T17:12:07.355Z,-0.69
2023-01-19T17:14:36.635Z,-0.69
2023-01-19T17:17:04.959Z,-0.71
2023-01-19T17:19:32.704Z,-0.72
2023-01-19T17:22:00.364Z,-0.79
2023-01-19T17:24:28.055Z,-0.69
2023-01-19T17:26:55.671Z,-0.74
2023-01-19T17:29:24.667Z,-0.74
2023-01-19T17:31:52.488Z,-0.80
2023-01-19T17:34:20.132Z,-0.77
2023-01-19T17:36:47.786Z,-0.67
2023-01-19T17:39:16.792Z,-0.68
2023-01-19T17:41:44.439Z,-0.63
2023-01-19T17:44:12.174Z,-0.60
2023-01-19T17:46:41.222Z,-0.69
2023-01-19T17:49:09.069Z,-0.72
2023-01-19T17:51:37.374Z,-0.72
2023-01-19T17:54:05.390Z,-0.70
2023-01-19T17:56:36.833Z,-0.69
2023-01-19T17:59:07.542Z,-0.72
2023-01-19T18:01:38.195Z,-0.66
2023-01-19T18:04:09.209Z,-0.68
2023-01-19T18:06:37.118Z,-0.63
2023-01-19T18:09:06.794Z,-0.67
2023-01-19T18:11:35.080Z,-0.65
2023-01-19T18:14:02.823Z,-0.59
2023-01-19T18:16:32.417Z,-0.60
2023-01-19T18:19:00.127Z,-0.66
2023-01-19T18:21:30.342Z,-0.73
2023-01-19T18:24:03.065Z,-0.73
2023-01-19T18:26:31.705Z,-0.79
2023-01-19T18:28:59.850Z,-0.80
2023-01-19T18:31:28.559Z,-0.80
2023-01-19T18:33:56.335Z,-0.76
2023-01-19T18:36:24.233Z,-0.74
2023-01-19T18:38:53.571Z,-0.73
2023-01-19T18:41:22.403Z,-0.78
2023-01-19T18:43:51.913Z,-0.63
2023-01-19T18:46:21.061Z,-0.68
2023-01-19T18:48:48.737Z,-0.70
2023-01-19T18:51:17.643Z,-0.68
2023-01-19T18:53:46.555Z,-0.64
2023-01-19T18:56:16.574Z,-0.67
2023-01-19T18:58:45.386Z,-0.70
2023-01-19T19:01:21.767Z,-0.73
2023-01-19T19:03:49.908Z,-0.53
2023-01-19T19:06:20.495Z,-0.62
2023-01-19T19:08:49.721Z,-0.52
2023-01-19T19:11:19.283Z,-0.57
2023-01-19T19:13:47.141Z,-0.48
2023-01-19T19:16:15.629Z,-0.50
2023-01-19T19:18:43.650Z,-0.53
2023-01-19T19:21:14.517Z,-0.33
2023-01-19T19:23:42.259Z,-0.36
2023-01-19T19:26:12.146Z,-0.33
2023-01-19T19:28:41.711Z,-0.33
2023-01-19T19:31:11.583Z,-0.42
2023-01-19T19:33:40.361Z,-0.34
2023-01-19T19:36:09.371Z,-0.34
2023-01-19T19:38:37.628Z,-0.48
2023-01-19T19:41:08.498Z,-0.36
2023-01-19T19:43:37.118Z,-0.29
2023-01-19T19:46:07.973Z,-0.30
2023-01-19T19:48:38.884Z,-0.29
2023-01-19T19:51:17.471Z,-0.30
2023-01-19T19:53:46.083Z,-0.33
2023-01-19T19:56:14.716Z,-0.22
2023-01-19T19:58:43.497Z,-0.38
2023-01-19T20:01:14.311Z,-0.41
2023-01-19T20:03:42.559Z,-0.38
2023-01-19T20:06:11.849Z,-0.35
2023-01-19T20:08:39.611Z,-0.21
2023-01-19T20:11:09.336Z,-0.19
2023-01-19T20:13:38.427Z,-0.16
2023-01-19T20:16:10.043Z,-0.21
2023-01-19T20:18:40.735Z,-0.18
2023-01-19T20:21:12.845Z,-0.01
2023-01-19T20:23:40.688Z,-0.12
2023-01-19T20:26:10.878Z,-0.17
2023-01-19T20:28:39.268Z,-0.21
2023-01-19T20:31:13.272Z,-0.20
2023-01-19T20:33:42.452Z,-0.12
2023-01-19T20:36:10.804Z,-0.11
2023-01-19T20:38:39.046Z,0.03
2023-01-19T20:41:08.031Z,-0.15
2023-01-19T20:43:36.120Z,-0.13
2023-01-19T20:46:04.376Z,-0.01
2023-01-19T20:48:32.748Z,0.03
2023-01-19T20:51:02.945Z,-0.03
2023-01-19T20:53:31.731Z,-0.04
2023-01-19T20:55:59.427Z,0.17
2023-01-19T20:58:27.100Z,0.12
2023-01-19T21:00:54.871Z,0.06
2023-01-19T21:03:22.552Z,0.11
2023-01-19T21:05:50.445Z,0.22
2023-01-19T21:08:19.633Z,0.16
2023-01-19T21:10:47.331Z,0.19
2023-01-19T21:13:14.975Z,0.16
2023-01-19T21:15:42.659Z,0.20
2023-01-19T21:18:10.272Z,0.28
2023-01-19T21:20:37.924Z,0.22
2023-01-19T21:23:05.739Z,0.20
2023-01-19T21:25:34.754Z,0.16
2023-01-19T21:28:02.399Z,0.16
2023-01-19T21:30:30.551Z,0.17
2023-01-19T21:32:58.216Z,0.12
2023-01-19T21:35:25.900Z,0.17
2023-01-19T21:37:53.531Z,0.18
2023-01-19T21:40:21.369Z,0.07
2023-01-19T21:42:50.440Z,0.13
2023-01-19T21:45:18.133Z,0.08
2023-01-19T21:47:45.768Z,0.04
2023-01-19T21:50:13.510Z,0.04
2023-01-19T21:52:41.220Z,0.04
2023-01-19T21:55:09.513Z,0.04
2023-01-19T21:57:37.159Z,0.10
2023-01-19T22:00:10.188Z,0.10
2023-01-19T22:02:39.134Z,0.17
2023-01-19T22:05:07.747Z,0.07
2023-01-19T22:07:35.412Z,0.12
2023-01-19T22:10:03.111Z,0.14
2023-01-19T22:12:30.784Z,0.18
2023-01-19T22:14:58.425Z,0.22
2023-01-19T22:17:27.453Z,0.25
2023-01-19T22:19:55.087Z,0.26
2023-01-19T22:22:22.795Z,0.23
2023-01-19T22:24:51.008Z,0.16
2023-01-19T22:27:18.772Z,0.24
2023-01-19T22:29:47.738Z,0.21
2023-01-19T22:32:15.383Z,0.22
2023-01-19T22:34:44.406Z,0.19
2023-01-19T22:37:12.078Z,0.25
2023-01-19T22:39:39.743Z,0.29
2023-01-19T22:42:07.400Z,0.27
2023-01-19T22:44:35.076Z,0.38
2023-01-19T22:47:02.751Z,0.34
2023-01-19T22:49:30.713Z,0.38
2023-01-19T22:51:59.763Z,0.36
2023-01-19T22:54:29.815Z,0.38
2023-01-19T22:56:57.483Z,0.50
2023-01-19T22:59:25.170Z,0.45
2023-01-19T23:01:53.063Z,0.48
2023-01-19T23:04:21.039Z,0.54
2023-01-19T23:06:50.445Z,0.46
2023-01-19T23:09:19.996Z,0.57
2023-01-19T23:11:50.559Z,0.49
2023-01-19T23:14:20.723Z,0.42
2023-01-19T23:16:48.769Z,0.43
2023-01-19T23:19:17.319Z,0.37
2023-01-19T23:21:45.746Z,0.43
2023-01-19T23:24:13.553Z,0.41
2023-01-19T23:26:42.678Z,0.39
2023-01-19T23:29:13.241Z,0.43
2023-01-19T23:31:44.187Z,0.36
2023-01-19T23:34:13.454Z,0.33
2023-01-19T23:36:42.599Z,0.43
2023-01-19T23:39:14.869Z,0.40
2023-01-19T23:41:43.904Z,0.42
2023-01-19T23:44:11.566Z,0.40
2023-01-19T23:46:39.509Z,0.41
2023-01-19T23:49:07.400Z,0.56
2023-01-19T23:51:35.808Z,0.54
2023-01-19T23:54:03.987Z,0.49
2023-01-19T23:56:33.828Z,0.54
2023-01-19T23:59:06.882Z,0.53
